createdAt,value
2022-09-01T00:00:07.776Z,77.26
2022-09-01T00:02:55.576Z,77.29
2022-09-01T00:05:22.891Z,77.33
2022-09-01T00:07:49.686Z,77.19
2022-09-01T00:10:17.393Z,77.41
2022-09-01T00:12:46.525Z,77.29
2022-09-01T00:15:17.128Z,77.17
2022-09-01T00:17:44.185Z,77.22
2022-09-01T00:20:10.908Z,77.19
2022-09-01T00:22:37.644Z,77.36
2022-09-01T00:25:05.890Z,77.28
2022-09-01T00:27:32.569Z,77.21
2022-09-01T00:30:00.422Z,77.47
2022-09-01T00:32:28.038Z,77.38
2022-09-01T00:34:55.151Z,77.44
2022-09-01T00:37:22.010Z,77.31
2022-09-01T00:39:48.780Z,77.29
2022-09-01T00:42:15.561Z,77.40
2022-09-01T00:44:42.438Z,77.70
2022-09-01T00:47:09.730Z,77.62
2022-09-01T00:49:42.979Z,77.73
2022-09-01T00:52:20.603Z,77.67
2022-09-01T00:54:50.951Z,77.55
2022-09-01T00:57:18.163Z,77.54
2022-09-01T01:00:24.555Z,77.51
2022-09-01T01:02:55.270Z,77.34
2022-09-01T01:05:30.934Z,77.38
2022-09-01T01:07:59.314Z,77.32
2022-09-01T01:10:32.100Z,77.35
2022-09-01T01:13:04.164Z,77.49
2022-09-01T01:15:31.212Z,77.40
2022-09-01T01:17:58.992Z,77.47
2022-09-01T01:20:47.635Z,77.51
2022-09-01T01:23:39.710Z,77.33
2022-09-01T01:26:09.842Z,77.39
2022-09-01T01:28:42.582Z,77.49
2022-09-01T01:31:18.288Z,77.42
2022-09-01T01:33:50.710Z,77.27
2022-09-01T01:36:25.310Z,77.26
2022-09-01T01:38:53.307Z,77.17
2022-09-01T01:41:21.495Z,77.23
2022-09-01T01:43:48.272Z,77.24
2022-09-01T01:46:18.594Z,77.24
2022-09-01T01:48:46.899Z,77.24
2022-09-01T01:51:20.656Z,77.36
2022-09-01T01:53:52.013Z,77.37
2022-09-01T01:56:20.072Z,77.30
2022-09-01T01:58:46.922Z,77.24
2022-09-01T02:01:17.020Z,77.43
2022-09-01T02:03:44.203Z,77.36
2022-09-01T02:06:11.556Z,77.54
2022-09-01T02:08:40.657Z,77.70
2022-09-01T02:11:08.419Z,77.93
2022-09-01T02:13:35.575Z,78.10
2022-09-01T02:16:12.260Z,78.21
2022-09-01T02:18:47.674Z,78.29
2022-09-01T02:21:19.871Z,78.56
2022-09-01T02:23:50.100Z,78.65
2022-09-01T02:26:18.556Z,78.56
2022-09-01T02:28:53.616Z,78.59
2022-09-01T02:31:27.635Z,78.66
2022-09-01T02:33:54.883Z,78.78
2022-09-01T02:36:24.596Z,78.71
2022-09-01T02:38:53.138Z,78.88
2022-09-01T02:41:26.580Z,78.90
2022-09-01T02:43:53.574Z,78.93
2022-09-01T02:46:22.966Z,78.98
2022-09-01T02:48:52.549Z,79.07
2022-09-01T02:51:24.725Z,79.38
2022-09-01T02:53:52.807Z,79.63
2022-09-01T02:56:22.304Z,79.96
2022-09-01T02:58:52.837Z,80.14
2022-09-01T03:01:25.299Z,80.25
2022-09-01T03:03:59.125Z,80.33
2022-09-01T03:06:27.705Z,80.25
2022-09-01T03:08:59.713Z,80.44
2022-09-01T03:11:29.495Z,80.35
2022-09-01T03:13:58.421Z,80.26
2022-09-01T03:16:25.426Z,80.30
2022-09-01T03:18:52.898Z,80.17
2022-09-01T03:21:20.255Z,79.98
2022-09-01T03:23:48.845Z,79.78
2022-09-01T03:26:18.347Z,79.71
2022-09-01T03:28:46.204Z,79.84
2022-09-01T03:31:13.061Z,79.74
2022-09-01T03:33:41.650Z,79.64
2022-09-01T03:36:18.739Z,79.59
2022-09-01T03:38:48.241Z,79.72
2022-09-01T03:41:17.860Z,79.75
2022-09-01T03:43:47.243Z,79.62
2022-09-01T03:46:20.871Z,79.81
2022-09-01T03:48:51.510Z,79.72
2022-09-01T03:51:22.137Z,79.89
2022-09-01T03:53:53.737Z,79.79
2022-09-01T03:56:23.604Z,79.74
2022-09-01T03:58:52.602Z,79.85
2022-09-01T04:01:19.735Z,79.83
2022-09-01T04:03:48.550Z,79.94
2022-09-01T04:06:24.274Z,79.78
2022-09-01T04:09:02.108Z,79.72
2022-09-01T04:11:34.069Z,79.92
2022-09-01T04:14:01.513Z,80.08
2022-09-01T04:16:50.984Z,79.71
2022-09-01T04:19:25.491Z,79.93
2022-09-01T04:21:55.922Z,79.81
2022-09-01T04:24:27.429Z,79.85
2022-09-01T04:26:58.078Z,80.04
2022-09-01T04:29:28.800Z,79.99
2022-09-01T04:32:03.311Z,79.95
2022-09-01T04:34:38.174Z,79.89
2022-09-01T04:37:12.471Z,80.05
2022-09-01T04:39:50.350Z,80.12
2022-09-01T04:42:23.481Z,80.26
2022-09-01T04:44:52.927Z,80.49
2022-09-01T04:47:29.450Z,80.55
2022-09-01T04:50:00.091Z,80.58
2022-09-01T04:52:27.952Z,80.60
2022-09-01T04:54:55.008Z,80.61
2022-09-01T04:57:22.567Z,80.70
2022-09-01T04:59:49.632Z,80.85
2022-09-01T05:02:16.542Z,80.97
2022-09-01T05:04:46.499Z,81.19
2022-09-01T05:07:18.452Z,81.31
2022-09-01T05:09:45.509Z,81.16
2022-09-01T05:12:31.191Z,81.43
2022-09-01T05:14:58.448Z,81.45
2022-09-01T05:17:28.804Z,81.91
2022-09-01T05:19:56.541Z,82.30
2022-09-01T05:22:23.407Z,82.44
2022-09-01T05:25:04.405Z,82.44
2022-09-01T05:27:31.813Z,82.63
2022-09-01T05:30:00.820Z,82.51
2022-09-01T05:32:28.206Z,82.26
2022-09-01T05:34:56.459Z,82.21
2022-09-01T05:37:23.524Z,82.22
2022-09-01T05:39:52.020Z,82.05
2022-09-01T05:42:19.465Z,81.69
2022-09-01T05:44:47.526Z,82.01
2022-09-01T05:47:21.365Z,81.66
2022-09-01T05:49:50.597Z,82.36
2022-09-01T05:52:20.147Z,82.47
2022-09-01T05:54:48.122Z,82.09
2022-09-01T05:57:33.732Z,81.73
2022-09-01T06:00:13.578Z,81.80
2022-09-01T06:02:42.366Z,81.94
2022-09-01T06:05:15.183Z,80.93
2022-09-01T06:07:43.836Z,80.73
2022-09-01T06:10:12.513Z,80.70
2022-09-01T06:12:40.803Z,80.37
2022-09-01T06:15:15.061Z,80.78
2022-09-01T06:17:44.430Z,80.39
2022-09-01T06:20:11.567Z,80.04
2022-09-01T06:22:43.434Z,79.46
2022-09-01T06:25:10.480Z,79.24
2022-09-01T06:27:40.605Z,78.62
2022-09-01T06:30:22.571Z,78.58
2022-09-01T06:33:01.758Z,77.50
2022-09-01T06:35:29.497Z,77.85
2022-09-01T06:37:58.116Z,77.03
2022-09-01T06:40:46.194Z,77.18
2022-09-01T06:43:17.190Z,76.82
2022-09-01T06:45:53.812Z,76.57
2022-09-01T06:48:23.165Z,76.10
2022-09-01T06:53:39.379Z,74.94
2022-09-01T06:56:12.876Z,74.37
2022-09-01T06:58:44.559Z,73.50
2022-09-01T07:01:15.452Z,72.80
2022-09-01T07:03:43.674Z,72.33
2022-09-01T07:09:49.914Z,71.34
2022-09-01T07:12:40.978Z,71.24
2022-09-01T07:17:57.938Z,70.04
2022-09-01T07:20:28.786Z,70.12
2022-09-01T07:23:05.716Z,69.58
2022-09-01T07:26:01.423Z,69.12
2022-09-01T07:28:37.276Z,69.18
2022-09-01T07:34:37.651Z,68.41
2022-09-01T07:39:48.473Z,68.29
2022-09-01T07:45:58.085Z,67.46
2022-09-01T07:51:36.425Z,67.22
2022-09-01T07:54:05.292Z,66.89
2022-09-01T07:56:36.263Z,67.15
2022-09-01T07:59:07.671Z,67.06
2022-09-01T08:01:35.571Z,66.80
2022-09-01T08:04:03.594Z,67.03
2022-09-01T08:06:37.903Z,66.19
2022-09-01T08:09:06.730Z,66.07
2022-09-01T08:12:01.154Z,65.46
2022-09-01T08:14:25.613Z,65.24
2022-09-01T08:16:53.397Z,64.75
2022-09-01T08:19:20.741Z,64.19
2022-09-01T08:22:04.052Z,62.87
2022-09-01T08:24:47.599Z,62.94
2022-09-01T08:27:15.393Z,62.75
2022-09-01T08:29:43.040Z,62.80
2022-09-01T08:32:11.118Z,61.64
2022-09-01T08:34:38.676Z,60.31
2022-09-01T08:37:06.444Z,59.05
2022-09-01T08:39:33.895Z,58.48
2022-09-01T08:42:19.634Z,58.06
2022-09-01T08:45:05.705Z,58.67
2022-09-01T08:47:50.453Z,57.71
2022-09-01T08:50:23.301Z,57.20
2022-09-01T08:53:15.708Z,56.25
2022-09-01T08:55:46.833Z,54.60
2022-09-01T08:58:17.579Z,53.66
2022-09-01T09:01:07.990Z,54.53
2022-09-01T09:03:41.172Z,54.94
2022-09-01T09:06:37.188Z,54.78
2022-09-01T09:09:09.361Z,54.81
2022-09-01T09:11:50.256Z,55.59
2022-09-01T09:14:52.317Z,55.04
2022-09-01T09:17:25.015Z,54.04
2022-09-01T09:19:53.608Z,54.32
2022-09-01T09:22:21.470Z,54.57
2022-09-01T09:25:17.483Z,54.70
2022-09-01T09:27:48.933Z,54.52
2022-09-01T09:30:26.957Z,54.79
2022-09-01T09:35:53.961Z,55.65
2022-09-01T09:38:33.330Z,56.42
2022-09-01T09:41:18.701Z,55.75
2022-09-01T09:43:49.286Z,54.64
2022-09-01T09:46:25.227Z,55.07
2022-09-01T09:49:34.535Z,54.90
2022-09-01T09:52:02.257Z,55.14
2022-09-01T09:54:34.643Z,55.63
2022-09-01T09:57:14.014Z,55.20
2022-09-01T09:59:58.147Z,55.26
2022-09-01T10:02:43.852Z,56.16
2022-09-01T10:05:36.464Z,55.75
2022-09-01T10:08:10.918Z,55.55
2022-09-01T10:10:56.378Z,55.17
2022-09-01T10:13:31.480Z,54.07
2022-09-01T10:16:09.255Z,53.96
2022-09-01T10:18:44.965Z,51.76
2022-09-01T10:21:17.636Z,51.11
2022-09-01T10:23:45.126Z,51.76
2022-09-01T10:26:35.816Z,52.47
2022-09-01T10:29:19.850Z,52.92
2022-09-01T10:31:49.493Z,52.95
2022-09-01T10:34:23.607Z,53.42
2022-09-01T10:36:56.712Z,53.41
2022-09-01T10:39:28.639Z,53.70
2022-09-01T10:42:06.970Z,53.59
2022-09-01T10:44:55.142Z,54.22
2022-09-01T10:47:33.481Z,54.52
2022-09-01T10:50:14.910Z,54.40
2022-09-01T10:52:43.284Z,53.39
2022-09-01T10:55:41.180Z,51.79
2022-09-01T11:01:51.155Z,52.66
2022-09-01T11:04:22.527Z,52.69
2022-09-01T11:07:12.060Z,53.28
2022-09-01T11:09:43.919Z,52.67
2022-09-01T11:12:32.124Z,52.50
2022-09-01T11:15:35.463Z,52.42
2022-09-01T11:18:09.461Z,50.81
2022-09-01T11:20:40.151Z,50.17
2022-09-01T11:23:20.186Z,50.35
2022-09-01T11:26:26.000Z,50.94
2022-09-01T11:28:54.538Z,51.27
2022-09-01T11:31:41.361Z,51.63
2022-09-01T11:34:20.707Z,51.68
2022-09-01T11:36:52.961Z,49.73
2022-09-01T11:39:26.514Z,49.54
2022-09-01T11:42:09.673Z,50.07
2022-09-01T11:44:49.203Z,49.51
2022-09-01T11:47:37.706Z,49.25
2022-09-01T11:50:14.925Z,49.21
2022-09-01T11:52:52.116Z,49.44
2022-09-01T11:55:34.110Z,48.79
2022-09-01T11:58:03.166Z,47.79
2022-09-01T12:00:38.519Z,46.64
2022-09-01T12:03:25.113Z,45.67
2022-09-01T12:06:02.099Z,45.54
2022-09-01T12:08:39.349Z,46.30
2022-09-01T12:11:19.997Z,45.04
2022-09-01T12:14:11.536Z,43.48
2022-09-01T12:16:44.369Z,43.52
2022-09-01T12:19:24.153Z,44.29
2022-09-01T12:22:17.510Z,43.66
2022-09-01T12:24:47.901Z,43.36
2022-09-01T12:27:16.358Z,42.58
2022-09-01T12:29:44.501Z,42.41
2022-09-01T12:32:13.770Z,40.95
2022-09-01T12:34:41.011Z,41.09
2022-09-01T12:37:20.390Z,40.91
2022-09-01T12:39:50.893Z,42.21
2022-09-01T12:42:21.333Z,39.92
2022-09-01T12:44:55.760Z,39.84
2022-09-01T12:47:35.405Z,40.02
2022-09-01T12:50:11.162Z,41.11
2022-09-01T12:52:52.456Z,40.49
2022-09-01T12:58:12.718Z,40.94
2022-09-01T13:01:16.215Z,41.17
2022-09-01T13:04:10.628Z,41.57
2022-09-01T13:06:38.460Z,42.08
2022-09-01T13:09:06.768Z,42.67
2022-09-01T13:14:22.068Z,43.71
2022-09-01T13:16:49.179Z,43.94
2022-09-01T13:19:24.058Z,44.58
2022-09-01T13:21:54.673Z,44.83
2022-09-01T13:24:26.408Z,44.75
2022-09-01T13:29:45.313Z,43.93
2022-09-01T13:32:27.774Z,44.46
2022-09-01T13:34:55.043Z,43.63
2022-09-01T13:37:22.959Z,42.13
2022-09-01T13:39:51.055Z,41.70
2022-09-01T13:42:18.785Z,41.92
2022-09-01T13:44:48.458Z,42.20
2022-09-01T13:47:32.214Z,42.54
2022-09-01T13:50:11.404Z,42.07
2022-09-01T13:52:43.715Z,42.91
2022-09-01T13:55:13.872Z,43.25
2022-09-01T13:57:41.101Z,42.32
2022-09-01T14:00:12.011Z,41.86
2022-09-01T14:02:42.575Z,42.02
2022-09-01T14:05:10.131Z,41.52
2022-09-01T14:07:37.311Z,42.66
2022-09-01T14:10:09.238Z,43.47
2022-09-01T14:12:36.960Z,43.61
2022-09-01T14:15:15.965Z,43.27
2022-09-01T14:17:46.263Z,44.03
2022-09-01T14:20:18.576Z,44.31
2022-09-01T14:22:48.223Z,44.11
2022-09-01T14:25:19.805Z,43.45
2022-09-01T14:27:49.328Z,43.93
2022-09-01T14:30:22.316Z,45.10
2022-09-01T14:32:51.875Z,45.31
2022-09-01T14:35:23.677Z,45.19
2022-09-01T14:37:52.944Z,46.36
2022-09-01T14:40:24.541Z,46.06
2022-09-01T14:42:53.625Z,45.31
2022-09-01T14:45:28.410Z,45.33
2022-09-01T14:48:01.158Z,45.87
2022-09-01T14:50:32.289Z,45.38
2022-09-01T14:53:02.390Z,45.11
2022-09-01T14:55:32.675Z,45.13
2022-09-01T14:58:00.950Z,44.88
2022-09-01T15:00:29.509Z,45.29
2022-09-01T15:02:57.995Z,44.96
2022-09-01T15:05:26.772Z,44.44
2022-09-01T15:07:55.513Z,44.64
2022-09-01T15:10:26.089Z,44.50
2022-09-01T15:12:56.264Z,44.16
2022-09-01T15:15:25.144Z,44.02
2022-09-01T15:17:54.286Z,43.17
2022-09-01T15:20:41.179Z,42.97
2022-09-01T15:23:10.590Z,43.58
2022-09-01T15:25:40.174Z,43.07
2022-09-01T15:28:09.523Z,42.74
2022-09-01T15:30:38.470Z,42.57
2022-09-01T15:33:13.238Z,42.66
2022-09-01T15:35:46.592Z,42.32
2022-09-01T15:38:17.522Z,42.02
2022-09-01T15:40:47.339Z,42.10
2022-09-01T15:43:28.202Z,42.70
2022-09-01T15:45:58.018Z,43.30
2022-09-01T15:48:28.096Z,44.13
2022-09-01T15:51:21.362Z,44.16
2022-09-01T15:53:56.121Z,43.46
2022-09-01T15:56:24.548Z,43.81
2022-09-01T15:59:07.732Z,43.74
2022-09-01T16:01:42.058Z,42.94
2022-09-01T16:04:18.413Z,43.33
2022-09-01T16:06:51.931Z,43.32
2022-09-01T16:09:22.331Z,42.94
2022-09-01T16:11:51.882Z,43.55
2022-09-01T16:14:23.648Z,42.90
2022-09-01T16:16:59.639Z,42.69
2022-09-01T16:19:58.515Z,42.93
2022-09-01T16:22:37.394Z,42.89
2022-09-01T16:25:19.085Z,43.23
2022-09-01T16:27:47.033Z,43.64
2022-09-01T16:30:21.930Z,43.49
2022-09-01T16:32:49.836Z,43.34
2022-09-01T16:35:20.095Z,43.13
2022-09-01T16:38:25.169Z,43.84
2022-09-01T16:41:23.617Z,43.80
2022-09-01T16:43:54.629Z,44.08
2022-09-01T16:46:34.863Z,44.54
2022-09-01T16:49:14.337Z,44.58
2022-09-01T16:52:23.714Z,44.68
2022-09-01T16:55:15.491Z,45.35
2022-09-01T16:58:09.180Z,45.68
2022-09-01T17:01:10.030Z,46.37
2022-09-01T17:04:12.558Z,46.96
2022-09-01T17:07:06.449Z,47.33
2022-09-01T17:09:45.615Z,47.98
2022-09-01T17:12:23.553Z,48.05
2022-09-01T17:15:14.552Z,48.78
2022-09-01T17:17:50.707Z,49.27
2022-09-01T17:20:27.888Z,49.05
2022-09-01T17:23:00.466Z,49.66
2022-09-01T17:25:42.850Z,48.81
2022-09-01T17:28:20.626Z,48.82
2022-09-01T17:31:00.413Z,49.37
2022-09-01T17:33:46.169Z,51.15
2022-09-01T17:36:46.666Z,50.82
2022-09-01T17:39:36.680Z,50.97
2022-09-01T17:42:24.577Z,51.24
2022-09-01T17:44:55.775Z,51.44
2022-09-01T17:47:24.161Z,51.85
2022-09-01T17:50:14.960Z,52.10
2022-09-01T17:53:26.858Z,52.23
2022-09-01T17:56:01.542Z,52.42
2022-09-01T17:58:47.987Z,52.56
2022-09-01T18:01:34.318Z,52.71
2022-09-01T18:04:23.340Z,52.65
2022-09-01T18:07:04.738Z,52.73
2022-09-01T18:09:43.275Z,53.50
2022-09-01T18:12:17.464Z,53.77
2022-09-01T18:14:55.907Z,54.16
2022-09-01T18:17:38.704Z,54.21
2022-09-01T18:20:49.016Z,54.54
2022-09-01T18:23:20.879Z,54.77
2022-09-01T18:25:57.384Z,54.97
2022-09-01T18:28:25.862Z,55.09
2022-09-01T18:31:06.401Z,55.22
2022-09-01T18:33:40.367Z,55.57
2022-09-01T18:36:13.639Z,55.60
2022-09-01T18:38:57.581Z,55.86
2022-09-01T18:41:48.988Z,55.96
2022-09-01T18:44:38.494Z,55.94
2022-09-01T18:47:11.165Z,55.95
2022-09-01T18:49:47.533Z,56.12
2022-09-01T18:53:00.470Z,56.55
2022-09-01T18:55:41.013Z,56.73
2022-09-01T18:58:34.273Z,56.82
2022-09-01T19:01:12.660Z,56.87
2022-09-01T19:04:18.808Z,57.11
2022-09-01T19:07:03.730Z,56.93
2022-09-01T19:09:36.925Z,57.19
2022-09-01T19:12:36.266Z,57.38
2022-09-01T19:15:16.193Z,57.76
2022-09-01T19:18:04.812Z,57.87
2022-09-01T19:20:37.846Z,58.42
2022-09-01T19:23:37.409Z,58.65
2022-09-01T19:26:11.735Z,59.11
2022-09-01T19:29:09.459Z,59.00
2022-09-01T19:31:42.605Z,59.12
2022-09-01T19:34:16.292Z,59.17
2022-09-01T19:36:53.637Z,59.31
2022-09-01T19:39:30.542Z,60.15
2022-09-01T19:42:25.338Z,60.80
2022-09-01T19:45:07.465Z,61.70
2022-09-01T19:47:45.256Z,62.43
2022-09-01T19:50:21.221Z,62.93
2022-09-01T19:53:02.388Z,63.03
2022-09-01T19:55:41.720Z,63.22
2022-09-01T19:58:19.022Z,63.30
2022-09-01T20:00:56.793Z,63.49
2022-09-01T20:03:35.137Z,63.90
2022-09-01T20:06:07.077Z,64.35
2022-09-01T20:08:54.199Z,64.53
2022-09-01T20:11:35.506Z,64.87
2022-09-01T20:14:20.527Z,64.89
2022-09-01T20:16:51.293Z,64.97
2022-09-01T20:19:24.883Z,65.08
2022-09-01T20:21:55.423Z,65.26
2022-09-01T20:24:33.835Z,64.87
2022-09-01T20:27:39.215Z,64.74
2022-09-01T20:30:16.772Z,64.45
2022-09-01T20:33:10.597Z,64.53
2022-09-01T20:36:08.658Z,65.12
2022-09-01T20:39:05.371Z,65.56
2022-09-01T20:41:39.625Z,65.55
2022-09-01T20:44:15.918Z,65.35
2022-09-01T20:46:43.265Z,65.17
2022-09-01T20:49:15.779Z,65.20
2022-09-01T20:51:52.767Z,65.23
2022-09-01T20:54:40.537Z,65.12
2022-09-01T20:57:17.538Z,65.19
2022-09-01T20:59:50.402Z,65.17
2022-09-01T21:02:47.411Z,65.41
2022-09-01T21:05:18.143Z,65.60
2022-09-01T21:08:14.794Z,65.93
2022-09-01T21:10:51.463Z,66.06
2022-09-01T21:13:43.231Z,65.92
2022-09-01T21:16:33.537Z,65.82
2022-09-01T21:19:18.854Z,66.16
2022-09-01T21:21:51.639Z,66.19
2022-09-01T21:24:19.090Z,66.10
2022-09-01T21:26:48.407Z,65.91
2022-09-01T21:29:49.464Z,66.02
2022-09-01T21:32:17.000Z,65.79
2022-09-01T21:34:45.210Z,65.81
2022-09-01T21:37:13.250Z,66.02
2022-09-01T21:39:40.908Z,66.22
2022-09-01T21:42:11.709Z,66.42
2022-09-01T21:44:40.110Z,66.70
2022-09-01T21:47:07.262Z,67.13
2022-09-01T21:49:34.222Z,67.18
2022-09-01T21:52:01.591Z,67.34
2022-09-01T21:54:28.666Z,67.51
2022-09-01T21:56:55.584Z,67.67
2022-09-01T21:59:22.918Z,67.78
2022-09-01T22:01:50.071Z,68.09
2022-09-01T22:04:18.140Z,68.57
2022-09-01T22:06:45.995Z,68.65
2022-09-01T22:09:21.337Z,68.92
2022-09-01T22:11:50.749Z,69.06
2022-09-01T22:14:19.281Z,69.35
2022-09-01T22:16:47.693Z,69.94
2022-09-01T22:19:15.061Z,70.99
2022-09-01T22:21:42.450Z,72.28
2022-09-01T22:24:09.870Z,72.63
2022-09-01T22:26:36.711Z,72.60
2022-09-01T22:29:06.175Z,72.65
2022-09-01T22:31:36.145Z,72.69
2022-09-01T22:34:04.420Z,72.57
2022-09-01T22:36:37.845Z,72.57
2022-09-01T22:39:06.288Z,72.57
2022-09-01T22:41:37.857Z,72.52
2022-09-01T22:44:05.128Z,72.54
2022-09-01T22:46:34.450Z,72.74
2022-09-01T22:49:01.777Z,73.18
2022-09-01T22:51:29.104Z,73.21
2022-09-01T22:53:56.256Z,73.33
2022-09-01T22:56:29.580Z,73.42
2022-09-01T22:59:00.721Z,73.49
2022-09-01T23:01:31.286Z,73.71
2022-09-01T23:04:03.913Z,73.46
2022-09-01T23:06:32.866Z,73.40
2022-09-01T23:09:01.916Z,73.36
2022-09-01T23:11:28.963Z,73.23
2022-09-01T23:13:55.869Z,73.10
2022-09-01T23:16:24.420Z,72.97
2022-09-01T23:18:54.467Z,73.08
2022-09-01T23:21:28.208Z,73.14
2022-09-01T23:23:58.744Z,73.12
2022-09-01T23:26:27.624Z,73.14
2022-09-01T23:28:55.067Z,73.12
2022-09-01T23:31:24.641Z,73.13
2022-09-01T23:33:51.780Z,73.06
2022-09-01T23:36:21.627Z,73.18
2022-09-01T23:38:49.427Z,73.33
2022-09-01T23:41:22.552Z,73.26
2022-09-01T23:43:51.179Z,73.10
2022-09-01T23:46:20.890Z,72.99
2022-09-01T23:48:47.711Z,73.05
2022-09-01T23:51:17.537Z,73.22
2022-09-01T23:53:46.435Z,73.30
2022-09-01T23:56:20.022Z,73.46
2022-09-01T23:58:48.411Z,73.61
